sensor_id;sensor_type;location;lat;lon;timestamp;P1;durP1;ratioP1;P2;durP2;ratioP2
69410;SDS011;56604;48.652;9.194;2024-03-22T00:00:04;12.47;;;10.10;;
69410;SDS011;56604;48.652;9.194;2024-03-22T00:02:30;15.80;;;11.10;;
69410;SDS011;56604;48.652;9.194;2024-03-22T00:04:55;17.33;;;10.53;;
69410;SDS011;56604;48.652;9.194;2024-03-22T00:07:20;14.23;;;11.60;;
69410;SDS011;56604;48.652;9.194;2024-03-22T00:09:47;18.97;;;10.67;;
69410;SDS011;56604;48.652;9.194;2024-03-22T00:12:12;14.40;;;9.97;;
69410;SDS011;56604;48.652;9.194;2024-03-22T00:14:38;14.70;;;10.80;;
69410;SDS011;56604;48.652;9.194;2024-03-22T00:17:03;19.70;;;10.43;;
69410;SDS011;56604;48.652;9.194;2024-03-22T00:19:28;16.07;;;10.70;;
69410;SDS011;56604;48.652;9.194;2024-03-22T00:21:53;15.60;;;9.83;;
69410;SDS011;56604;48.652;9.194;2024-03-22T00:24:19;13.93;;;9.47;;
69410;SDS011;56604;48.652;9.194;2024-03-22T00:26:44;15.67;;;10.07;;
69410;SDS011;56604;48.652;9.194;2024-03-22T00:29:09;12.47;;;9.60;;
69410;SDS011;56604;48.652;9.194;2024-03-22T00:31:35;16.90;;;11.47;;
69410;SDS011;56604;48.652;9.194;2024-03-22T00:34:00;18.40;;;11.43;;
69410;SDS011;56604;48.652;9.194;2024-03-22T00:36:25;15.30;;;11.00;;
69410;SDS011;56604;48.652;9.194;2024-03-22T00:38:51;16.83;;;10.87;;
69410;SDS011;56604;48.652;9.194;2024-03-22T00:41:16;17.13;;;11.53;;
69410;SDS011;56604;48.652;9.194;2024-03-22T00:43:41;18.30;;;11.33;;
69410;SDS011;56604;48.652;9.194;2024-03-22T00:46:07;17.17;;;10.73;;
69410;SDS011;56604;48.652;9.194;2024-03-22T00:48:32;20.87;;;10.37;;
69410;SDS011;56604;48.652;9.194;2024-03-22T00:50:58;23.93;;;10.47;;
69410;SDS011;56604;48.652;9.194;2024-03-22T00:53:23;13.93;;;10.20;;
69410;SDS011;56604;48.652;9.194;2024-03-22T00:55:48;15.67;;;10.20;;
69410;SDS011;56604;48.652;9.194;2024-03-22T00:58:17;15.90;;;10.97;;
69410;SDS011;56604;48.652;9.194;2024-03-22T01:00:44;18.73;;;10.87;;
69410;SDS011;56604;48.652;9.194;2024-03-22T01:03:09;13.40;;;9.40;;
69410;SDS011;56604;48.652;9.194;2024-03-22T01:05:35;17.60;;;9.73;;
69410;SDS011;56604;48.652;9.194;2024-03-22T01:08:01;21.10;;;10.60;;
69410;SDS011;56604;48.652;9.194;2024-03-22T01:10:26;18.33;;;11.40;;
69410;SDS011;56604;48.652;9.194;2024-03-22T01:12:52;21.93;;;11.00;;
69410;SDS011;56604;48.652;9.194;2024-03-22T01:15:17;20.20;;;11.07;;
69410;SDS011;56604;48.652;9.194;2024-03-22T01:17:43;19.60;;;11.73;;
69410;SDS011;56604;48.652;9.194;2024-03-22T01:20:08;17.00;;;11.00;;
69410;SDS011;56604;48.652;9.194;2024-03-22T01:22:34;14.77;;;10.70;;
69410;SDS011;56604;48.652;9.194;2024-03-22T01:24:59;20.03;;;12.20;;
69410;SDS011;56604;48.652;9.194;2024-03-22T01:27:24;14.57;;;11.60;;
69410;SDS011;56604;48.652;9.194;2024-03-22T01:29:50;21.40;;;12.27;;
69410;SDS011;56604;48.652;9.194;2024-03-22T01:32:15;19.00;;;12.70;;
69410;SDS011;56604;48.652;9.194;2024-03-22T01:34:40;18.03;;;10.70;;
69410;SDS011;56604;48.652;9.194;2024-03-22T01:37:06;18.00;;;11.50;;
69410;SDS011;56604;48.652;9.194;2024-03-22T01:39:31;15.77;;;11.53;;
69410;SDS011;56604;48.652;9.194;2024-03-22T01:41:56;19.57;;;11.37;;
69410;SDS011;56604;48.652;9.194;2024-03-22T01:44:28;16.70;;;10.30;;
69410;SDS011;56604;48.652;9.194;2024-03-22T01:46:56;16.80;;;10.77;;
69410;SDS011;56604;48.652;9.194;2024-03-22T01:49:21;22.70;;;10.27;;
69410;SDS011;56604;48.652;9.194;2024-03-22T01:51:49;19.40;;;10.83;;
69410;SDS011;56604;48.652;9.194;2024-03-22T01:54:15;17.03;;;10.50;;
69410;SDS011;56604;48.652;9.194;2024-03-22T01:56:41;16.00;;;10.30;;
69410;SDS011;56604;48.652;9.194;2024-03-22T01:59:07;16.63;;;10.47;;
69410;SDS011;56604;48.652;9.194;2024-03-22T02:01:33;17.37;;;10.10;;
69410;SDS011;56604;48.652;9.194;2024-03-22T02:04:00;21.20;;;12.13;;
69410;SDS011;56604;48.652;9.194;2024-03-22T02:06:25;21.00;;;11.63;;
69410;SDS011;56604;48.652;9.194;2024-03-22T02:08:51;17.00;;;11.63;;
69410;SDS011;56604;48.652;9.194;2024-03-22T02:11:16;17.23;;;11.87;;
69410;SDS011;56604;48.652;9.194;2024-03-22T02:13:42;19.83;;;12.03;;
69410;SDS011;56604;48.652;9.194;2024-03-22T02:16:10;20.80;;;12.40;;
69410;SDS011;56604;48.652;9.194;2024-03-22T02:18:35;15.90;;;11.30;;
69410;SDS011;56604;48.652;9.194;2024-03-22T02:21:01;24.30;;;12.73;;
69410;SDS011;56604;48.652;9.194;2024-03-22T02:23:32;15.40;;;11.33;;
69410;SDS011;56604;48.652;9.194;2024-03-22T02:25:59;18.63;;;12.30;;
69410;SDS011;56604;48.652;9.194;2024-03-22T02:28:25;17.93;;;12.73;;
69410;SDS011;56604;48.652;9.194;2024-03-22T02:30:50;32.53;;;13.00;;
69410;SDS011;56604;48.652;9.194;2024-03-22T02:33:15;28.57;;;12.97;;
69410;SDS011;56604;48.652;9.194;2024-03-22T02:35:41;20.27;;;13.27;;
69410;SDS011;56604;48.652;9.194;2024-03-22T02:38:06;22.10;;;13.10;;
69410;SDS011;56604;48.652;9.194;2024-03-22T02:40:32;17.17;;;12.43;;
69410;SDS011;56604;48.652;9.194;2024-03-22T02:42:58;20.43;;;12.80;;
69410;SDS011;56604;48.652;9.194;2024-03-22T02:45:24;19.20;;;12.50;;
69410;SDS011;56604;48.652;9.194;2024-03-22T02:47:50;21.73;;;12.90;;
69410;SDS011;56604;48.652;9.194;2024-03-22T02:50:15;19.70;;;12.50;;
69410;SDS011;56604;48.652;9.194;2024-03-22T02:52:40;18.07;;;12.47;;
69410;SDS011;56604;48.652;9.194;2024-03-22T02:55:06;18.80;;;12.80;;
69410;SDS011;56604;48.652;9.194;2024-03-22T02:57:31;23.73;;;12.10;;
69410;SDS011;56604;48.652;9.194;2024-03-22T02:59:56;25.93;;;13.60;;
69410;SDS011;56604;48.652;9.194;2024-03-22T03:02:24;20.10;;;13.80;;
69410;SDS011;56604;48.652;9.194;2024-03-22T03:04:51;17.57;;;12.10;;
69410;SDS011;56604;48.652;9.194;2024-03-22T03:07:16;20.57;;;12.07;;
69410;SDS011;56604;48.652;9.194;2024-03-22T03:09:41;17.40;;;11.17;;
69410;SDS011;56604;48.652;9.194;2024-03-22T03:12:07;16.40;;;11.97;;
69410;SDS011;56604;48.652;9.194;2024-03-22T03:14:32;18.87;;;11.90;;
69410;SDS011;56604;48.652;9.194;2024-03-22T03:16:57;20.77;;;12.50;;
69410;SDS011;56604;48.652;9.194;2024-03-22T03:19:23;16.63;;;11.70;;
69410;SDS011;56604;48.652;9.194;2024-03-22T03:21:48;19.67;;;13.20;;
69410;SDS011;56604;48.652;9.194;2024-03-22T03:24:13;20.03;;;12.00;;
69410;SDS011;56604;48.652;9.194;2024-03-22T03:26:38;25.67;;;13.10;;
69410;SDS011;56604;48.652;9.194;2024-03-22T03:29:05;24.30;;;12.30;;
69410;SDS011;56604;48.652;9.194;2024-03-22T03:31:31;23.20;;;12.60;;
69410;SDS011;56604;48.652;9.194;2024-03-22T03:33:57;17.80;;;12.47;;
69410;SDS011;56604;48.652;9.194;2024-03-22T03:36:23;24.90;;;12.27;;
69410;SDS011;56604;48.652;9.194;2024-03-22T03:38:48;22.20;;;12.20;;
69410;SDS011;56604;48.652;9.194;2024-03-22T03:41:13;16.43;;;10.83;;
69410;SDS011;56604;48.652;9.194;2024-03-22T03:43:40;18.90;;;11.70;;
69410;SDS011;56604;48.652;9.194;2024-03-22T03:46:05;15.93;;;11.73;;
69410;SDS011;56604;48.652;9.194;2024-03-22T03:48:31;15.80;;;11.73;;
69410;SDS011;56604;48.652;9.194;2024-03-22T03:50:56;18.50;;;11.10;;
69410;SDS011;56604;48.652;9.194;2024-03-22T03:53:24;14.60;;;10.80;;
69410;SDS011;56604;48.652;9.194;2024-03-22T03:55:50;15.67;;;10.53;;
69410;SDS011;56604;48.652;9.194;2024-03-22T03:58:15;14.90;;;11.30;;
69410;SDS011;56604;48.652;9.194;2024-03-22T04:00:42;15.87;;;10.97;;
69410;SDS011;56604;48.652;9.194;2024-03-22T04:03:08;18.47;;;10.50;;
69410;SDS011;56604;48.652;9.194;2024-03-22T04:05:33;17.47;;;10.80;;
69410;SDS011;56604;48.652;9.194;2024-03-22T04:07:59;13.40;;;10.93;;
69410;SDS011;56604;48.652;9.194;2024-03-22T04:10:24;16.10;;;11.30;;
69410;SDS011;56604;48.652;9.194;2024-03-22T04:12:49;15.30;;;10.90;;
69410;SDS011;56604;48.652;9.194;2024-03-22T04:15:15;16.53;;;10.63;;
69410;SDS011;56604;48.652;9.194;2024-03-22T04:17:40;13.97;;;9.97;;
69410;SDS011;56604;48.652;9.194;2024-03-22T04:20:05;15.67;;;11.10;;
69410;SDS011;56604;48.652;9.194;2024-03-22T04:22:33;17.67;;;11.63;;
69410;SDS011;56604;48.652;9.194;2024-03-22T04:24:58;15.70;;;11.00;;
69410;SDS011;56604;48.652;9.194;2024-03-22T04:27:23;21.87;;;11.93;;
69410;SDS011;56604;48.652;9.194;2024-03-22T04:29:49;15.20;;;10.83;;
69410;SDS011;56604;48.652;9.194;2024-03-22T04:32:14;18.10;;;11.40;;
69410;SDS011;56604;48.652;9.194;2024-03-22T04:34:42;15.30;;;11.23;;
69410;SDS011;56604;48.652;9.194;2024-03-22T04:37:08;19.63;;;11.10;;
69410;SDS011;56604;48.652;9.194;2024-03-22T04:39:34;17.93;;;10.83;;
69410;SDS011;56604;48.652;9.194;2024-03-22T04:41:59;19.10;;;10.67;;
69410;SDS011;56604;48.652;9.194;2024-03-22T04:44:25;12.03;;;10.67;;
69410;SDS011;56604;48.652;9.194;2024-03-22T04:46:50;18.10;;;11.70;;
69410;SDS011;56604;48.652;9.194;2024-03-22T04:49:15;13.53;;;10.40;;
69410;SDS011;56604;48.652;9.194;2024-03-22T04:51:41;22.40;;;11.00;;
69410;SDS011;56604;48.652;9.194;2024-03-22T04:54:06;21.53;;;11.00;;
69410;SDS011;56604;48.652;9.194;2024-03-22T04:56:31;20.07;;;11.50;;
69410;SDS011;56604;48.652;9.194;2024-03-22T04:58:58;16.93;;;10.53;;
69410;SDS011;56604;48.652;9.194;2024-03-22T05:01:23;15.23;;;10.23;;
69410;SDS011;56604;48.652;9.194;2024-03-22T05:03:50;18.37;;;11.80;;
69410;SDS011;56604;48.652;9.194;2024-03-22T05:06:15;19.43;;;11.20;;
69410;SDS011;56604;48.652;9.194;2024-03-22T05:08:40;19.10;;;11.10;;
69410;SDS011;56604;48.652;9.194;2024-03-22T05:11:06;17.63;;;11.00;;
69410;SDS011;56604;48.652;9.194;2024-03-22T05:13:32;15.20;;;10.60;;
69410;SDS011;56604;48.652;9.194;2024-03-22T05:15:58;20.37;;;11.40;;
69410;SDS011;56604;48.652;9.194;2024-03-22T05:18:23;16.93;;;11.10;;
69410;SDS011;56604;48.652;9.194;2024-03-22T05:20:48;15.63;;;10.23;;
69410;SDS011;56604;48.652;9.194;2024-03-22T05:23:14;19.20;;;10.50;;
69410;SDS011;56604;48.652;9.194;2024-03-22T05:25:41;19.27;;;11.60;;
69410;SDS011;56604;48.652;9.194;2024-03-22T05:28:07;17.33;;;9.93;;
69410;SDS011;56604;48.652;9.194;2024-03-22T05:30:32;19.67;;;10.93;;
69410;SDS011;56604;48.652;9.194;2024-03-22T05:32:57;13.70;;;9.20;;
69410;SDS011;56604;48.652;9.194;2024-03-22T05:35:23;17.17;;;10.60;;
69410;SDS011;56604;48.652;9.194;2024-03-22T05:37:48;21.70;;;10.40;;
69410;SDS011;56604;48.652;9.194;2024-03-22T05:40:14;14.57;;;10.67;;
69410;SDS011;56604;48.652;9.194;2024-03-22T05:42:40;16.93;;;10.60;;
69410;SDS011;56604;48.652;9.194;2024-03-22T05:45:06;14.30;;;10.30;;
69410;SDS011;56604;48.652;9.194;2024-03-22T05:47:31;15.90;;;10.60;;
69410;SDS011;56604;48.652;9.194;2024-03-22T05:49:57;16.23;;;10.60;;
69410;SDS011;56604;48.652;9.194;2024-03-22T05:52:23;15.67;;;10.60;;
69410;SDS011;56604;48.652;9.194;2024-03-22T05:54:48;12.87;;;9.83;;
69410;SDS011;56604;48.652;9.194;2024-03-22T05:57:14;12.33;;;9.73;;
69410;SDS011;56604;48.652;9.194;2024-03-22T05:59:39;16.70;;;11.00;;
69410;SDS011;56604;48.652;9.194;2024-03-22T06:02:05;14.70;;;9.87;;
69410;SDS011;56604;48.652;9.194;2024-03-22T06:04:30;16.60;;;9.97;;
69410;SDS011;56604;48.652;9.194;2024-03-22T06:06:55;13.20;;;9.30;;
69410;SDS011;56604;48.652;9.194;2024-03-22T06:09:21;17.60;;;10.20;;
69410;SDS011;56604;48.652;9.194;2024-03-22T06:11:58;14.67;;;9.83;;
69410;SDS011;56604;48.652;9.194;2024-03-22T06:14:24;19.80;;;9.87;;
69410;SDS011;56604;48.652;9.194;2024-03-22T06:16:49;22.57;;;9.57;;
69410;SDS011;56604;48.652;9.194;2024-03-22T06:19:14;11.67;;;9.27;;
69410;SDS011;56604;48.652;9.194;2024-03-22T06:21:40;14.00;;;9.00;;
69410;SDS011;56604;48.652;9.194;2024-03-22T06:24:06;18.33;;;9.80;;
69410;SDS011;56604;48.652;9.194;2024-03-22T06:26:32;16.87;;;9.20;;
69410;SDS011;56604;48.652;9.194;2024-03-22T06:28:57;14.13;;;9.17;;
69410;SDS011;56604;48.652;9.194;2024-03-22T06:31:22;17.93;;;9.70;;
69410;SDS011;56604;48.652;9.194;2024-03-22T06:33:48;16.40;;;8.70;;
69410;SDS011;56604;48.652;9.194;2024-03-22T06:36:13;12.60;;;8.80;;
69410;SDS011;56604;48.652;9.194;2024-03-22T06:38:38;14.53;;;8.60;;
69410;SDS011;56604;48.652;9.194;2024-03-22T06:41:04;11.67;;;8.20;;
69410;SDS011;56604;48.652;9.194;2024-03-22T06:43:29;13.40;;;8.67;;
69410;SDS011;56604;48.652;9.194;2024-03-22T06:45:54;11.53;;;8.83;;
69410;SDS011;56604;48.652;9.194;2024-03-22T06:48:20;14.50;;;8.53;;
69410;SDS011;56604;48.652;9.194;2024-03-22T06:50:45;17.23;;;8.60;;
69410;SDS011;56604;48.652;9.194;2024-03-22T06:53:11;9.97;;;8.40;;
69410;SDS011;56604;48.652;9.194;2024-03-22T06:55:36;10.57;;;7.73;;
69410;SDS011;56604;48.652;9.194;2024-03-22T06:58:02;10.77;;;8.03;;
69410;SDS011;56604;48.652;9.194;2024-03-22T07:00:27;19.87;;;9.63;;
69410;SDS011;56604;48.652;9.194;2024-03-22T07:02:53;11.97;;;8.13;;
69410;SDS011;56604;48.652;9.194;2024-03-22T07:05:20;12.50;;;8.10;;
69410;SDS011;56604;48.652;9.194;2024-03-22T07:07:46;11.77;;;8.43;;
69410;SDS011;56604;48.652;9.194;2024-03-22T07:10:12;11.73;;;8.57;;
69410;SDS011;56604;48.652;9.194;2024-03-22T07:12:37;13.40;;;8.60;;
69410;SDS011;56604;48.652;9.194;2024-03-22T07:15:02;12.27;;;8.50;;
69410;SDS011;56604;48.652;9.194;2024-03-22T07:17:29;9.10;;;7.30;;
69410;SDS011;56604;48.652;9.194;2024-03-22T07:19:54;12.63;;;7.83;;
69410;SDS011;56604;48.652;9.194;2024-03-22T07:22:21;10.00;;;7.83;;
69410;SDS011;56604;48.652;9.194;2024-03-22T07:24:46;10.67;;;7.60;;
69410;SDS011;56604;48.652;9.194;2024-03-22T07:27:12;12.30;;;7.90;;
69410;SDS011;56604;48.652;9.194;2024-03-22T07:29:39;10.77;;;8.10;;
69410;SDS011;56604;48.652;9.194;2024-03-22T07:32:04;15.97;;;8.27;;
69410;SDS011;56604;48.652;9.194;2024-03-22T07:34:31;10.20;;;7.80;;
69410;SDS011;56604;48.652;9.194;2024-03-22T07:36:57;11.00;;;7.73;;
69410;SDS011;56604;48.652;9.194;2024-03-22T07:39:22;11.40;;;7.83;;
69410;SDS011;56604;48.652;9.194;2024-03-22T07:41:48;15.03;;;7.60;;
69410;SDS011;56604;48.652;9.194;2024-03-22T07:44:14;10.70;;;7.70;;
69410;SDS011;56604;48.652;9.194;2024-03-22T07:46:39;14.90;;;7.60;;
69410;SDS011;56604;48.652;9.194;2024-03-22T07:49:05;7.77;;;6.40;;
69410;SDS011;56604;48.652;9.194;2024-03-22T07:51:30;10.73;;;7.40;;
69410;SDS011;56604;48.652;9.194;2024-03-22T07:53:55;15.30;;;7.20;;
69410;SDS011;56604;48.652;9.194;2024-03-22T07:56:21;11.60;;;7.67;;
69410;SDS011;56604;48.652;9.194;2024-03-22T07:58:46;8.97;;;7.43;;
69410;SDS011;56604;48.652;9.194;2024-03-22T08:01:12;11.83;;;7.33;;
69410;SDS011;56604;48.652;9.194;2024-03-22T08:03:37;12.90;;;6.80;;
69410;SDS011;56604;48.652;9.194;2024-03-22T08:06:03;8.93;;;7.60;;
69410;SDS011;56604;48.652;9.194;2024-03-22T08:08:29;9.50;;;7.53;;
69410;SDS011;56604;48.652;9.194;2024-03-22T08:10:54;8.87;;;7.10;;
69410;SDS011;56604;48.652;9.194;2024-03-22T08:13:20;9.23;;;7.20;;
69410;SDS011;56604;48.652;9.194;2024-03-22T08:15:45;13.40;;;7.67;;
69410;SDS011;56604;48.652;9.194;2024-03-22T08:18:11;10.23;;;7.47;;
69410;SDS011;56604;48.652;9.194;2024-03-22T08:20:36;9.30;;;7.70;;
69410;SDS011;56604;48.652;9.194;2024-03-22T08:23:04;18.53;;;8.30;;
69410;SDS011;56604;48.652;9.194;2024-03-22T08:25:29;13.07;;;7.70;;
69410;SDS011;56604;48.652;9.194;2024-03-22T08:27:55;8.53;;;6.90;;
69410;SDS011;56604;48.652;9.194;2024-03-22T08:30:21;8.13;;;6.90;;
69410;SDS011;56604;48.652;9.194;2024-03-22T08:32:47;7.60;;;6.90;;
69410;SDS011;56604;48.652;9.194;2024-03-22T08:35:13;12.97;;;7.60;;
69410;SDS011;56604;48.652;9.194;2024-03-22T08:37:38;9.30;;;6.47;;
69410;SDS011;56604;48.652;9.194;2024-03-22T08:40:03;13.20;;;6.60;;
69410;SDS011;56604;48.652;9.194;2024-03-22T08:42:29;11.80;;;7.00;;
69410;SDS011;56604;48.652;9.194;2024-03-22T08:44:55;6.80;;;5.80;;
69410;SDS011;56604;48.652;9.194;2024-03-22T08:47:20;9.27;;;6.20;;
69410;SDS011;56604;48.652;9.194;2024-03-22T08:49:45;12.20;;;7.50;;
69410;SDS011;56604;48.652;9.194;2024-03-22T08:52:11;15.77;;;7.00;;
69410;SDS011;56604;48.652;9.194;2024-03-22T08:54:36;8.93;;;5.50;;
69410;SDS011;56604;48.652;9.194;2024-03-22T08:57:03;6.50;;;5.53;;
69410;SDS011;56604;48.652;9.194;2024-03-22T08:59:28;9.00;;;5.87;;
69410;SDS011;56604;48.652;9.194;2024-03-22T09:01:53;11.53;;;5.90;;
69410;SDS011;56604;48.652;9.194;2024-03-22T09:04:19;9.80;;;5.87;;
69410;SDS011;56604;48.652;9.194;2024-03-22T09:06:45;12.20;;;6.13;;
69410;SDS011;56604;48.652;9.194;2024-03-22T09:09:10;5.90;;;5.27;;
69410;SDS011;56604;48.652;9.194;2024-03-22T09:11:36;8.40;;;6.40;;
69410;SDS011;56604;48.652;9.194;2024-03-22T09:14:02;8.00;;;6.13;;
69410;SDS011;56604;48.652;9.194;2024-03-22T09:16:27;7.27;;;6.00;;
69410;SDS011;56604;48.652;9.194;2024-03-22T09:18:52;9.27;;;7.00;;
69410;SDS011;56604;48.652;9.194;2024-03-22T09:21:18;7.27;;;6.57;;
69410;SDS011;56604;48.652;9.194;2024-03-22T09:23:43;8.30;;;6.07;;
69410;SDS011;56604;48.652;9.194;2024-03-22T09:26:08;7.37;;;6.50;;
69410;SDS011;56604;48.652;9.194;2024-03-22T09:28:34;6.73;;;5.37;;
69410;SDS011;56604;48.652;9.194;2024-03-22T09:31:06;6.53;;;5.83;;
69410;SDS011;56604;48.652;9.194;2024-03-22T09:33:34;8.53;;;5.67;;
69410;SDS011;56604;48.652;9.194;2024-03-22T09:36:00;9.90;;;5.20;;
69410;SDS011;56604;48.652;9.194;2024-03-22T09:38:26;6.97;;;4.73;;
69410;SDS011;56604;48.652;9.194;2024-03-22T09:40:54;8.00;;;5.43;;
69410;SDS011;56604;48.652;9.194;2024-03-22T09:43:20;10.53;;;5.40;;
69410;SDS011;56604;48.652;9.194;2024-03-22T09:45:47;5.47;;;5.03;;
69410;SDS011;56604;48.652;9.194;2024-03-22T09:48:14;8.37;;;4.30;;
69410;SDS011;56604;48.652;9.194;2024-03-22T09:50:42;6.33;;;5.13;;
69410;SDS011;56604;48.652;9.194;2024-03-22T09:53:08;4.80;;;4.30;;
69410;SDS011;56604;48.652;9.194;2024-03-22T09:55:34;9.47;;;4.70;;
69410;SDS011;56604;48.652;9.194;2024-03-22T09:58:02;9.50;;;4.10;;
69410;SDS011;56604;48.652;9.194;2024-03-22T10:00:27;3.70;;;3.40;;
69410;SDS011;56604;48.652;9.194;2024-03-22T10:02:53;7.27;;;4.63;;
69410;SDS011;56604;48.652;9.194;2024-03-22T10:05:19;12.73;;;4.50;;
69410;SDS011;56604;48.652;9.194;2024-03-22T10:07:44;7.17;;;4.70;;
69410;SDS011;56604;48.652;9.194;2024-03-22T10:10:10;5.83;;;4.17;;
69410;SDS011;56604;48.652;9.194;2024-03-22T10:12:37;6.83;;;4.03;;
69410;SDS011;56604;48.652;9.194;2024-03-22T10:15:04;5.23;;;4.70;;
69410;SDS011;56604;48.652;9.194;2024-03-22T10:17:31;6.93;;;4.20;;
69410;SDS011;56604;48.652;9.194;2024-03-22T10:19:56;4.63;;;4.33;;
69410;SDS011;56604;48.652;9.194;2024-03-22T10:22:21;4.70;;;4.20;;
69410;SDS011;56604;48.652;9.194;2024-03-22T10:24:47;5.90;;;4.67;;
69410;SDS011;56604;48.652;9.194;2024-03-22T10:27:12;5.90;;;4.20;;
69410;SDS011;56604;48.652;9.194;2024-03-22T10:29:38;8.57;;;4.07;;
69410;SDS011;56604;48.652;9.194;2024-03-22T10:32:04;9.60;;;4.70;;
69410;SDS011;56604;48.652;9.194;2024-03-22T10:34:32;8.27;;;4.40;;
69410;SDS011;56604;48.652;9.194;2024-03-22T10:36:59;4.83;;;4.43;;
69410;SDS011;56604;48.652;9.194;2024-03-22T10:39:25;5.90;;;4.70;;
69410;SDS011;56604;48.652;9.194;2024-03-22T10:41:51;8.73;;;5.23;;
69410;SDS011;56604;48.652;9.194;2024-03-22T10:44:16;5.03;;;4.53;;
69410;SDS011;56604;48.652;9.194;2024-03-22T10:46:48;6.53;;;4.63;;
69410;SDS011;56604;48.652;9.194;2024-03-22T10:49:18;4.60;;;4.20;;
69410;SDS011;56604;48.652;9.194;2024-03-22T10:51:46;6.50;;;4.80;;
69410;SDS011;56604;48.652;9.194;2024-03-22T10:54:18;8.20;;;4.93;;
69410;SDS011;56604;48.652;9.194;2024-03-22T10:56:45;9.47;;;5.47;;
69410;SDS011;56604;48.652;9.194;2024-03-22T10:59:14;5.37;;;4.87;;
69410;SDS011;56604;48.652;9.194;2024-03-22T11:01:45;4.70;;;4.40;;
69410;SDS011;56604;48.652;9.194;2024-03-22T11:04:16;6.90;;;4.77;;
69410;SDS011;56604;48.652;9.194;2024-03-22T11:06:49;5.30;;;4.80;;
69410;SDS011;56604;48.652;9.194;2024-03-22T11:09:22;7.33;;;5.57;;
69410;SDS011;56604;48.652;9.194;2024-03-22T11:11:48;5.80;;;5.20;;
69410;SDS011;56604;48.652;9.194;2024-03-22T11:14:14;6.57;;;5.60;;
69410;SDS011;56604;48.652;9.194;2024-03-22T11:16:42;7.47;;;5.60;;
69410;SDS011;56604;48.652;9.194;2024-03-22T11:19:09;10.20;;;5.87;;
69410;SDS011;56604;48.652;9.194;2024-03-22T11:21:34;9.13;;;5.00;;
69410;SDS011;56604;48.652;9.194;2024-03-22T11:24:03;10.30;;;5.00;;
69410;SDS011;56604;48.652;9.194;2024-03-22T11:26:31;5.33;;;4.53;;
69410;SDS011;56604;48.652;9.194;2024-03-22T11:28:56;7.40;;;4.10;;
69410;SDS011;56604;48.652;9.194;2024-03-22T11:31:22;4.80;;;4.30;;
69410;SDS011;56604;48.652;9.194;2024-03-22T11:33:52;6.33;;;5.03;;
69410;SDS011;56604;48.652;9.194;2024-03-22T11:36:18;8.57;;;5.13;;
69410;SDS011;56604;48.652;9.194;2024-03-22T11:38:43;6.33;;;4.07;;
69410;SDS011;56604;48.652;9.194;2024-03-22T11:41:08;8.47;;;5.10;;
69410;SDS011;56604;48.652;9.194;2024-03-22T11:43:34;8.77;;;4.97;;
69410;SDS011;56604;48.652;9.194;2024-03-22T11:46:00;6.30;;;4.33;;
69410;SDS011;56604;48.652;9.194;2024-03-22T11:48:26;6.50;;;4.67;;
69410;SDS011;56604;48.652;9.194;2024-03-22T11:50:53;9.73;;;5.10;;
69410;SDS011;56604;48.652;9.194;2024-03-22T11:53:20;5.80;;;5.30;;
69410;SDS011;56604;48.652;9.194;2024-03-22T11:55:46;15.90;;;4.77;;
69410;SDS011;56604;48.652;9.194;2024-03-22T11:58:11;8.57;;;4.90;;
69410;SDS011;56604;48.652;9.194;2024-03-22T12:00:37;7.30;;;5.43;;
69410;SDS011;56604;48.652;9.194;2024-03-22T12:03:04;6.07;;;4.73;;
69410;SDS011;56604;48.652;9.194;2024-03-22T12:05:31;8.10;;;5.67;;
69410;SDS011;56604;48.652;9.194;2024-03-22T12:07:57;5.40;;;4.90;;
69410;SDS011;56604;48.652;9.194;2024-03-22T12:10:22;8.67;;;4.70;;
69410;SDS011;56604;48.652;9.194;2024-03-22T12:12:47;6.40;;;4.70;;
69410;SDS011;56604;48.652;9.194;2024-03-22T12:15:13;5.93;;;5.30;;
69410;SDS011;56604;48.652;9.194;2024-03-22T12:17:38;6.50;;;4.97;;
69410;SDS011;56604;48.652;9.194;2024-03-22T12:20:06;9.50;;;4.70;;
69410;SDS011;56604;48.652;9.194;2024-03-22T12:22:33;5.80;;;5.10;;
69410;SDS011;56604;48.652;9.194;2024-03-22T12:24:59;8.03;;;5.17;;
69410;SDS011;56604;48.652;9.194;2024-03-22T12:27:24;5.87;;;4.93;;
69410;SDS011;56604;48.652;9.194;2024-03-22T12:29:50;12.00;;;4.80;;
69410;SDS011;56604;48.652;9.194;2024-03-22T12:32:15;8.43;;;4.37;;
69410;SDS011;56604;48.652;9.194;2024-03-22T12:34:40;12.73;;;5.17;;
69410;SDS011;56604;48.652;9.194;2024-03-22T12:37:06;10.67;;;4.30;;
69410;SDS011;56604;48.652;9.194;2024-03-22T12:39:32;9.30;;;4.63;;
69410;SDS011;56604;48.652;9.194;2024-03-22T12:41:57;12.03;;;4.77;;
69410;SDS011;56604;48.652;9.194;2024-03-22T12:44:23;5.57;;;4.40;;
69410;SDS011;56604;48.652;9.194;2024-03-22T12:46:48;7.30;;;4.77;;
69410;SDS011;56604;48.652;9.194;2024-03-22T12:49:16;5.80;;;4.53;;
69410;SDS011;56604;48.652;9.194;2024-03-22T12:51:41;6.30;;;3.77;;
69410;SDS011;56604;48.652;9.194;2024-03-22T12:54:07;3.87;;;3.57;;
69410;SDS011;56604;48.652;9.194;2024-03-22T12:56:33;5.70;;;4.57;;
69410;SDS011;56604;48.652;9.194;2024-03-22T12:58:58;12.30;;;5.10;;
69410;SDS011;56604;48.652;9.194;2024-03-22T13:01:24;7.40;;;4.10;;
69410;SDS011;56604;48.652;9.194;2024-03-22T13:03:49;7.57;;;4.90;;
69410;SDS011;56604;48.652;9.194;2024-03-22T13:06:15;5.80;;;4.43;;
69410;SDS011;56604;48.652;9.194;2024-03-22T13:08:40;6.17;;;4.30;;
69410;SDS011;56604;48.652;9.194;2024-03-22T13:11:05;7.27;;;4.33;;
69410;SDS011;56604;48.652;9.194;2024-03-22T13:13:34;7.90;;;3.97;;
69410;SDS011;56604;48.652;9.194;2024-03-22T13:15:59;3.67;;;3.33;;
69410;SDS011;56604;48.652;9.194;2024-03-22T13:18:27;13.13;;;4.90;;
69410;SDS011;56604;48.652;9.194;2024-03-22T13:20:52;4.00;;;3.70;;
69410;SDS011;56604;48.652;9.194;2024-03-22T13:23:18;8.33;;;4.13;;
69410;SDS011;56604;48.652;9.194;2024-03-22T13:25:43;5.37;;;4.17;;
69410;SDS011;56604;48.652;9.194;2024-03-22T13:28:09;8.87;;;4.57;;
69410;SDS011;56604;48.652;9.194;2024-03-22T13:30:34;4.00;;;3.70;;
69410;SDS011;56604;48.652;9.194;2024-03-22T13:33:03;8.10;;;3.67;;
69410;SDS011;56604;48.652;9.194;2024-03-22T13:35:30;7.73;;;3.80;;
69410;SDS011;56604;48.652;9.194;2024-03-22T13:37:56;4.33;;;3.43;;
69410;SDS011;56604;48.652;9.194;2024-03-22T13:40:21;4.90;;;3.73;;
69410;SDS011;56604;48.652;9.194;2024-03-22T13:42:47;4.80;;;3.77;;
69410;SDS011;56604;48.652;9.194;2024-03-22T13:45:12;3.43;;;3.23;;
69410;SDS011;56604;48.652;9.194;2024-03-22T13:47:37;6.10;;;3.33;;
69410;SDS011;56604;48.652;9.194;2024-03-22T13:50:05;11.60;;;3.23;;
69410;SDS011;56604;48.652;9.194;2024-03-22T13:52:35;8.90;;;2.80;;
69410;SDS011;56604;48.652;9.194;2024-03-22T13:55:04;4.73;;;3.10;;
69410;SDS011;56604;48.652;9.194;2024-03-22T13:57:30;4.50;;;2.90;;
69410;SDS011;56604;48.652;9.194;2024-03-22T13:59:56;3.40;;;2.67;;
69410;SDS011;56604;48.652;9.194;2024-03-22T14:02:21;3.07;;;2.80;;
69410;SDS011;56604;48.652;9.194;2024-03-22T14:04:47;8.47;;;3.27;;
69410;SDS011;56604;48.652;9.194;2024-03-22T14:07:12;6.40;;;2.50;;
69410;SDS011;56604;48.652;9.194;2024-03-22T14:09:37;5.43;;;2.80;;
69410;SDS011;56604;48.652;9.194;2024-03-22T14:12:04;2.87;;;2.67;;
69410;SDS011;56604;48.652;9.194;2024-03-22T14:14:29;6.87;;;2.90;;
69410;SDS011;56604;48.652;9.194;2024-03-22T14:16:55;4.97;;;2.93;;
69410;SDS011;56604;48.652;9.194;2024-03-22T14:19:20;3.40;;;2.90;;
69410;SDS011;56604;48.652;9.194;2024-03-22T14:21:46;3.83;;;2.37;;
69410;SDS011;56604;48.652;9.194;2024-03-22T14:24:12;19.53;;;2.93;;